Time;durP1;ratioP1;P1;durP2;ratioP2;P2;SDS_P1;SDS_P2;PMS_P1;PMS_P2;Temp;Humidity;BMP_temperature;BMP_pressure;BME280_temperature;BME280_humidity;BME280_pressure;Samples;Min_cycle;Max_cycle;Signal;HPM_P1;HPM_P2
2022/03/28 00:00:34;;;;;;;8.63;0.70;;;6.60;99.90;;;;;;5094696;28;20066;-75
2022/03/28 00:02:59;;;;;;;15.73;1.33;;;6.50;99.90;;;;;;5096129;28;20127;-75
2022/03/28 00:05:25;;;;;;;17.00;1.95;;;6.50;99.90;;;;;;5094995;28;20017;-75
2022/03/28 00:07:50;;;;;;;21.65;1.10;;;6.30;99.90;;;;;;5096037;28;20063;-75
2022/03/28 00:10:16;;;;;;;9.30;1.95;;;6.30;99.90;;;;;;5095834;28;20062;-75
2022/03/28 00:12:42;;;;;;;16.50;1.30;;;6.20;99.90;;;;;;5095973;28;20099;-75
2022/03/28 00:15:09;;;;;;;11.93;1.38;;;6.20;99.90;;;;;;5094677;28;20560;-75
2022/03/28 00:17:36;;;;;;;9.63;1.33;;;6.20;99.90;;;;;;5094659;28;20020;-75
2022/03/28 00:20:09;;;;;;;10.57;0.80;;;6.10;99.90;;;;;;5095441;28;20023;-75
2022/03/28 00:22:35;;;;;;;16.83;1.58;;;6.10;99.90;;;;;;5095521;28;20029;-75
2022/03/28 00:25:01;;;;;;;9.35;0.98;;;6.00;99.90;;;;;;5096018;28;20020;-75
2022/03/28 00:27:26;;;;;;;10.25;0.93;;;6.00;99.90;;;;;;5095369;28;20069;-75
2022/03/28 00:29:52;;;;;;;16.60;1.10;;;6.00;99.90;;;;;;5095333;28;20054;-75
2022/03/28 00:32:17;;;;;;;13.95;1.13;;;5.90;99.90;;;;;;5095470;28;20031;-75
2022/03/28 00:34:43;;;;;;;13.98;0.73;;;5.90;99.90;;;;;;5095550;28;20081;-75
2022/03/28 00:37:10;;;;;;;10.15;1.92;;;6.20;99.90;;;;;;5095568;28;20024;-75
2022/03/28 00:39:36;;;;;;;20.67;1.73;;;5.90;99.90;;;;;;5095257;28;20492;-75
2022/03/28 00:42:01;;;;;;;14.25;0.98;;;5.80;99.90;;;;;;5095149;28;20035;-75
2022/03/28 00:44:30;;;;;;;13.00;1.73;;;6.00;99.90;;;;;;5095401;28;20381;-75
2022/03/28 00:46:55;;;;;;;15.18;1.33;;;5.90;99.90;;;;;;5095119;28;20020;-75
2022/03/28 00:49:21;;;;;;;16.25;1.42;;;5.90;99.90;;;;;;5094985;28;20103;-75
2022/03/28 00:51:46;;;;;;;14.35;1.73;;;5.90;99.90;;;;;;5095308;28;20357;-75
2022/03/28 00:54:12;;;;;;;11.43;0.52;;;5.80;99.90;;;;;;5094999;28;20499;-75
2022/03/28 00:56:38;;;;;;;14.30;1.60;;;5.70;99.90;;;;;;5093797;28;20028;-75
2022/03/28 00:59:04;;;;;;;8.73;1.45;;;5.70;99.90;;;;;;5093538;28;20028;-75
2022/03/28 01:01:30;;;;;;;15.80;1.98;;;5.70;99.90;;;;;;5094570;28;20032;-75
2022/03/28 01:03:56;;;;;;;9.95;0.95;;;5.60;99.90;;;;;;5094887;28;20020;-75
2022/03/28 01:06:22;;;;;;;9.23;1.50;;;5.60;99.90;;;;;;5094704;28;20020;-75
2022/03/28 01:08:48;;;;;;;21.40;1.27;;;5.50;99.90;;;;;;5094929;28;20028;-75
2022/03/28 01:11:15;;;;;;;14.85;1.00;;;5.50;99.90;;;;;;5095072;28;20381;-75
2022/03/28 01:13:41;;;;;;;14.90;0.70;;;5.40;99.90;;;;;;5093343;28;20027;-75
2022/03/28 01:16:08;;;;;;;13.38;1.40;;;5.40;99.90;;;;;;5094572;28;20048;-75
2022/03/28 01:18:34;;;;;;;11.52;0.80;;;5.40;99.90;;;;;;5094811;28;20031;-75
2022/03/28 01:21:01;;;;;;;14.23;1.02;;;5.40;99.90;;;;;;5094172;28;20027;-75
2022/03/28 01:23:26;;;;;;;11.98;0.57;;;5.40;99.90;;;;;;5094568;28;20024;-75
2022/03/28 01:25:54;;;;;;;13.55;1.00;;;5.40;99.90;;;;;;5093025;28;20060;-75
2022/03/28 01:28:21;;;;;;;17.55;1.67;;;5.40;99.90;;;;;;5094592;28;20016;-75
2022/03/28 01:30:47;;;;;;;10.07;0.80;;;5.40;99.90;;;;;;5094072;28;20031;-75
2022/03/28 01:33:14;;;;;;;11.63;1.13;;;5.40;99.90;;;;;;5092941;28;20074;-75
2022/03/28 01:35:41;;;;;;;13.45;1.10;;;5.40;99.90;;;;;;5094034;28;20032;-75
2022/03/28 01:38:08;;;;;;;14.02;2.28;;;5.40;99.90;;;;;;5094167;28;20074;-75
2022/03/28 01:40:39;;;;;;;14.13;1.65;;;5.40;99.90;;;;;;5094117;28;20024;-75
2022/03/28 01:43:04;;;;;;;15.18;0.82;;;5.30;99.90;;;;;;5094092;28;20477;-75
2022/03/28 01:45:30;;;;;;;6.50;0.60;;;3.90;99.90;;;;;;5092745;28;20107;-75
2022/03/28 01:47:56;;;;;;;21.67;1.75;;;5.20;99.90;;;;;;5094209;28;20453;-75
2022/03/28 01:50:22;;;;;;;15.20;1.83;;;5.20;99.90;;;;;;5092589;28;20059;-75
2022/03/28 01:52:48;;;;;;;16.00;1.33;;;5.20;99.90;;;;;;5093880;28;20028;-75
2022/03/28 01:55:14;;;;;;;13.82;0.82;;;5.10;99.90;;;;;;5093934;28;20492;-75
2022/03/28 01:57:42;;;;;;;12.90;1.00;;;5.10;99.90;;;;;;5093740;28;20036;-75
2022/03/28 02:00:14;;;;;;;15.18;1.00;;;5.00;99.90;;;;;;5092470;28;20020;-75
2022/03/28 02:02:39;;;;;;;7.93;0.82;;;5.00;99.90;;;;;;5093639;28;20032;-75
2022/03/28 02:05:11;;;;;;;12.85;1.42;;;4.90;99.90;;;;;;5092588;28;20039;-75
2022/03/28 02:07:40;;;;;;;9.43;0.93;;;4.90;99.90;;;;;;5092351;28;20038;-75
2022/03/28 02:10:10;;;;;;;13.18;1.33;;;4.90;99.90;;;;;;5093533;28;20020;-75
2022/03/28 02:12:37;;;;;;;13.88;1.70;;;4.90;99.90;;;;;;5092430;28;20473;-75
2022/03/28 02:15:06;;;;;;;8.57;2.03;;;4.90;99.90;;;;;;5093574;28;20020;-75
2022/03/28 02:17:36;;;;;;;15.52;2.28;;;4.90;99.90;;;;;;5092293;28;20024;-75
2022/03/28 02:20:05;;;;;;;12.00;0.57;;;4.90;99.90;;;;;;5093629;28;20081;-75
2022/03/28 02:22:31;;;;;;;;;;;4.80;99.90;;;;;;5092598;28;20523;-75
2022/03/28 02:24:57;;;;;;;20.75;1.40;;;4.90;99.90;;;;;;5093370;28;20288;-75
2022/03/28 02:27:22;;;;;;;8.63;1.17;;;4.90;99.90;;;;;;5093671;28;20024;-75
2022/03/28 02:29:48;;;;;;;11.45;1.38;;;4.90;99.90;;;;;;5093289;28;20023;-75
2022/03/28 02:32:14;;;;;;;13.30;1.73;;;4.80;99.90;;;;;;5093657;28;20024;-75
2022/03/28 02:34:40;;;;;;;8.95;1.88;;;4.80;99.90;;;;;;5093804;28;20032;-75
2022/03/28 02:37:05;;;;;;;15.45;1.88;;;4.80;99.90;;;;;;5093555;28;20019;-75
2022/03/28 02:39:31;;;;;;;10.75;1.67;;;4.70;99.90;;;;;;5093454;28;20497;-75
2022/03/28 02:41:56;;;;;;;18.65;2.30;;;4.70;99.90;;;;;;5091907;28;20024;-75
2022/03/28 02:44:22;;;;;;;18.30;2.42;;;4.60;99.90;;;;;;5094802;28;20107;-75
2022/03/28 02:46:50;;;;;;;10.45;1.63;;;4.60;99.90;;;;;;5097325;28;20065;-75
2022/03/28 02:49:18;;;;;;;8.00;1.15;;;4.50;99.90;;;;;;5097606;28;20033;-75
2022/03/28 02:51:44;;;;;;;13.52;0.95;;;4.50;99.90;;;;;;5095964;28;20493;-75
2022/03/28 02:54:10;;;;;;;13.68;1.98;;;4.50;99.90;;;;;;5095955;28;20052;-75
2022/03/28 02:56:35;;;;;;;14.23;2.13;;;4.40;99.90;;;;;;5097322;28;20458;-75
2022/03/28 02:59:01;;;;;;;14.60;1.67;;;4.40;99.90;;;;;;5095762;28;20035;-75
2022/03/28 03:01:27;;;;;;;7.28;1.73;;;4.40;99.90;;;;;;5096919;28;20051;-75
2022/03/28 03:03:52;;;;;;;14.55;1.52;;;4.40;99.90;;;;;;5097194;28;20016;-75
2022/03/28 03:06:18;;;;;;;10.10;1.70;;;4.30;99.90;;;;;;5096900;28;20027;-75
2022/03/28 03:08:44;;;;;;;14.60;2.03;;;4.30;99.90;;;;;;5095533;28;20388;-75
2022/03/28 03:11:09;;;;;;;9.80;2.13;;;4.40;99.90;;;;;;5096833;28;20024;-75
2022/03/28 03:13:36;;;;;;;8.00;1.60;;;4.30;99.90;;;;;;5096827;28;20499;-75
2022/03/28 03:16:03;;;;;;;13.50;2.30;;;4.30;99.90;;;;;;5096810;28;20020;-75
2022/03/28 03:18:29;;;;;;;13.88;2.33;;;4.30;99.90;;;;;;5097262;28;20020;-75
2022/03/28 03:20:54;;;;;;;19.83;2.30;;;4.40;99.90;;;;;;5096378;28;20020;-75
2022/03/28 03:23:20;;;;;;;7.25;1.52;;;4.30;99.90;;;;;;5095382;28;20016;-76
2022/03/28 03:25:46;;;;;;;16.38;2.33;;;4.30;99.90;;;;;;5096696;28;20032;-76
2022/03/28 03:28:11;;;;;;;10.75;1.50;;;4.20;99.90;;;;;;5096623;28;20065;-75
2022/03/28 03:30:37;;;;;;;15.68;1.88;;;4.20;99.90;;;;;;5096748;28;20016;-75
2022/03/28 03:33:03;;;;;;;13.57;2.05;;;4.20;99.90;;;;;;5096662;28;20492;-76
2022/03/28 03:35:29;;;;;;;12.40;1.42;;;4.10;99.90;;;;;;5096808;28;20032;-76
2022/03/28 03:37:55;;;;;;;14.27;2.15;;;4.00;99.90;;;;;;5096913;28;20386;-76
2022/03/28 03:40:20;;;;;;;17.33;2.70;;;4.00;99.90;;;;;;5095236;28;20098;-76
2022/03/28 03:42:46;;;;;;;11.95;1.90;;;4.00;99.90;;;;;;5096191;28;20032;-75
2022/03/28 03:45:11;;;;;;;12.60;1.83;;;3.90;99.90;;;;;;5095124;28;20023;-75
2022/03/28 03:47:37;;;;;;;12.85;2.53;;;3.90;99.90;;;;;;5094984;28;20047;-75
2022/03/28 03:50:04;;;;;;;13.95;2.33;;;3.90;99.90;;;;;;5096399;28;20022;-75
2022/03/28 03:52:30;;;;;;;11.40;2.70;;;3.90;99.90;;;;;;5094832;28;20035;-75
2022/03/28 03:54:56;;;;;;;13.35;3.15;;;3.80;99.90;;;;;;5095499;28;20024;-75
2022/03/28 03:57:21;;;;;;;12.45;2.42;;;3.80;99.90;;;;;;5096070;28;20054;-76
2022/03/28 03:59:47;;;;;;;11.63;2.25;;;3.80;99.90;;;;;;5095867;28;20052;-76
2022/03/28 04:02:13;;;;;;;10.13;2.45;;;3.80;99.90;;;;;;5095794;28;20024;-76
2022/03/28 04:04:38;;;;;;;8.73;2.58;;;3.80;99.90;;;;;;5094595;28;20016;-76
2022/03/28 04:07:04;;;;;;;17.75;2.90;;;3.70;99.90;;;;;;5094595;28;20358;-76
2022/03/28 04:09:29;;;;;;;15.13;2.17;;;3.70;99.90;;;;;;5096058;28;20586;-76
2022/03/28 04:11:55;;;;;;;8.20;3.30;;;3.70;99.90;;;;;;5095995;28;20119;-76
2022/03/28 04:14:20;;;;;;;12.40;2.58;;;3.70;99.90;;;;;;5095787;28;20039;-75
2022/03/28 04:16:46;;;;;;;10.93;2.72;;;3.80;99.90;;;;;;5096016;28;20534;-76
2022/03/28 04:19:13;;;;;;;10.60;3.00;;;3.80;99.90;;;;;;5094212;28;20024;-76
2022/03/28 04:21:38;;;;;;;10.82;2.58;;;3.80;99.90;;;;;;5094182;28;20477;-76
2022/03/28 04:24:04;;;;;;;8.52;2.47;;;3.80;99.90;;;;;;5094260;28;20123;-76
2022/03/28 04:26:30;;;;;;;10.45;3.15;;;3.80;99.90;;;;;;5095458;28;20469;-76
2022/03/28 04:28:56;;;;;;;12.65;3.10;;;3.80;99.90;;;;;;5095336;28;20031;-76
2022/03/28 04:31:21;;;;;;;11.55;2.88;;;3.90;99.90;;;;;;5095695;28;20061;-76
2022/03/28 04:33:47;;;;;;;10.13;2.53;;;3.90;99.90;;;;;;5095335;28;20024;-76
2022/03/28 04:36:12;;;;;;;7.65;2.90;;;4.00;99.90;;;;;;5095570;28;20020;-72
2022/03/28 04:38:38;;;;;;;9.27;2.67;;;4.00;99.90;;;;;;5095223;28;20024;-73
2022/03/28 04:41:03;;;;;;;11.70;2.92;;;4.00;99.90;;;;;;5094187;28;20405;-73
2022/03/28 04:43:29;;;;;;;10.73;2.55;;;4.00;99.90;;;;;;5095126;28;20043;-73
2022/03/28 04:45:54;;;;;;;7.40;2.47;;;4.00;99.90;;;;;;5095012;28;20032;-73
2022/03/28 04:48:20;;;;;;;9.75;2.75;;;4.00;99.90;;;;;;5095205;28;20039;-73
2022/03/28 04:50:46;;;;;;;12.93;3.47;;;4.00;99.90;;;;;;5093695;28;20020;-73
2022/03/28 04:53:12;;;;;;;8.57;2.63;;;4.00;99.90;;;;;;5094813;28;20103;-73
2022/03/28 04:55:38;;;;;;;9.80;3.50;;;4.00;99.90;;;;;;5095425;28;20520;-73
2022/03/28 04:58:04;;;;;;;10.43;2.97;;;4.00;99.90;;;;;;5095037;28;20028;-73
2022/03/28 05:00:29;;;;;;;8.35;2.92;;;4.00;99.90;;;;;;5094690;28;20203;-73
2022/03/28 05:02:55;;;;;;;9.30;3.13;;;4.00;99.90;;;;;;5093347;28;20020;-73
2022/03/28 05:05:21;;;;;;;10.85;3.10;;;4.00;99.90;;;;;;5094609;28;20381;-73
2022/03/28 05:07:46;;;;;;;11.63;2.72;;;4.10;99.90;;;;;;5092834;28;20024;-73
2022/03/28 05:10:12;;;;;;;7.15;2.60;;;4.10;99.90;;;;;;5095440;28;20510;-73
2022/03/28 05:12:37;;;;;;;8.93;2.78;;;4.10;99.90;;;;;;5094476;28;20050;-73
2022/03/28 05:15:03;;;;;;;11.35;3.00;;;4.10;99.90;;;;;;5094517;28;20028;-73
2022/03/28 05:17:31;;;;;;;9.10;3.08;;;4.10;99.90;;;;;;5094298;28;20028;-73
2022/03/28 05:19:59;;;;;;;11.25;3.30;;;4.10;99.90;;;;;;5094618;28;20020;-73
2022/03/28 05:22:24;;;;;;;7.60;2.58;;;4.10;99.90;;;;;;5092921;28;20043;-73
2022/03/28 05:24:54;;;;;;;11.57;3.20;;;4.10;99.90;;;;;;5092954;28;20381;-73
2022/03/28 05:27:20;;;;;;;15.57;3.25;;;4.10;99.90;;;;;;5094257;28;20028;-72
2022/03/28 05:29:47;;;;;;;8.95;3.42;;;4.10;99.90;;;;;;5094351;28;20496;-72
2022/03/28 05:32:13;;;;;;;8.38;2.67;;;4.10;99.90;;;;;;5094457;28;20381;-72
2022/03/28 05:34:39;;;;;;;9.38;2.88;;;4.10;99.90;;;;;;5094059;28;20028;-72
2022/03/28 05:37:12;;;;;;;7.75;2.55;;;4.10;99.90;;;;;;5094018;28;20066;-72
2022/03/28 05:39:39;;;;;;;13.75;4.05;;;4.20;99.90;;;;;;5092716;28;20082;-72
2022/03/28 05:42:07;;;;;;;13.73;3.92;;;4.20;99.90;;;;;;5093905;28;20032;-73
2022/03/28 05:44:33;;;;;;;10.75;3.42;;;4.20;99.90;;;;;;5092681;28;20031;-74
2022/03/28 05:46:58;;;;;;;11.07;3.80;;;4.20;99.90;;;;;;5094373;28;20024;-74
2022/03/28 05:49:24;;;;;;;9.15;3.42;;;4.30;99.90;;;;;;5094175;28;20032;-74
2022/03/28 05:51:50;;;;;;;12.20;3.38;;;4.30;99.90;;;;;;5092891;28;20020;-74
2022/03/28 05:54:16;;;;;;;8.75;3.17;;;4.30;99.90;;;;;;5092761;28;20557;-74
2022/03/28 05:56:42;;;;;;;9.98;3.35;;;4.40;99.90;;;;;;5093736;28;20134;-73
2022/03/28 05:59:07;;;;;;;10.45;2.90;;;4.40;99.90;;;;;;5093991;28;20051;-74
2022/03/28 06:01:34;;;;;;;15.52;3.08;;;4.40;99.90;;;;;;5092578;28;20035;-74
2022/03/28 06:04:00;;;;;;;12.98;3.58;;;4.50;99.90;;;;;;5093796;28;20047;-74
2022/03/28 06:06:26;;;;;;;10.38;3.38;;;4.50;99.90;;;;;;5094048;28;20485;-74
2022/03/28 06:08:52;;;;;;;8.80;2.80;;;4.50;99.90;;;;;;5093234;28;20579;-77
2022/03/28 06:11:18;;;;;;;7.97;2.75;;;4.50;99.90;;;;;;5095434;28;20024;-77
2022/03/28 06:13:44;;;;;;;9.32;3.15;;;4.60;99.90;;;;;;5093877;28;20024;-77
2022/03/28 06:16:10;;;;;;;12.23;3.42;;;4.60;99.90;;;;;;5094449;28;20077;-77
2022/03/28 06:18:35;;;;;;;13.70;2.67;;;4.60;99.90;;;;;;5093636;28;20027;-76
2022/03/28 06:21:01;;;;;;;8.82;3.00;;;4.70;99.90;;;;;;5092185;28;20016;-76
2022/03/28 06:23:26;;;;;;;11.85;2.55;;;4.70;99.90;;;;;;5093958;28;20024;-76
2022/03/28 06:25:52;;;;;;;9.50;3.50;;;4.70;99.90;;;;;;5093292;28;20017;-77
2022/03/28 06:28:18;;;;;;;11.32;2.88;;;4.80;99.90;;;;;;5092840;28;20073;-75
2022/03/28 06:30:44;;;;;;;10.05;3.15;;;4.80;99.90;;;;;;5092185;28;20020;-75
2022/03/28 06:33:10;;;;;;;8.98;2.53;;;4.90;99.90;;;;;;5094062;28;20114;-76
2022/03/28 06:35:36;;;;;;;8.57;2.85;;;4.90;99.90;;;;;;5093564;28;20034;-75
2022/03/28 06:38:02;;;;;;;12.15;3.03;;;4.90;99.90;;;;;;5094063;28;20020;-75
2022/03/28 06:40:28;;;;;;;11.73;2.90;;;5.00;99.90;;;;;;5093659;28;20046;-75
2022/03/28 06:42:53;;;;;;;10.02;3.20;;;5.00;99.90;;;;;;5093527;28;20056;-75
2022/03/28 06:45:19;;;;;;;11.48;3.25;;;5.10;99.90;;;;;;5094082;28;20034;-75
2022/03/28 06:47:50;;;;;;;10.88;2.85;;;5.10;99.90;;;;;;5093806;28;20020;-76
2022/03/28 06:50:16;;;;;;;6.90;2.70;;;5.20;99.90;;;;;;5093624;28;20020;-76
2022/03/28 06:52:41;;;;;;;9.27;3.47;;;5.20;99.90;;;;;;5093378;28;20039;-76
2022/03/28 06:55:07;;;;;;;10.13;3.80;;;5.20;99.90;;;;;;5092079;28;20046;-76
2022/03/28 06:57:33;;;;;;;9.10;2.88;;;5.30;99.90;;;;;;5093661;28;20020;-76
2022/03/28 06:59:58;;;;;;;11.10;3.38;;;5.40;99.90;;;;;;5091886;28;20078;-76
2022/03/28 07:02:24;;;;;;;14.20;3.30;;;5.50;99.90;;;;;;5093140;28;20355;-76
2022/03/28 07:04:56;;;;;;;12.70;3.00;;;5.50;99.90;;;;;;5092028;28;20503;-76
2022/03/28 07:07:21;;;;;;;10.80;3.47;;;8.10;99.90;;;;;;5093215;28;20098;-75
2022/03/28 07:09:47;;;;;;;9.43;3.00;;;5.60;99.90;;;;;;5091906;28;20115;-75
2022/03/28 07:12:13;;;;;;;8.63;3.63;;;5.70;99.90;;;;;;5093416;28;20388;-76
2022/03/28 07:14:38;;;;;;;10.63;3.05;;;5.70;99.90;;;;;;5093310;28;20028;-76
2022/03/28 07:17:04;;;;;;;11.23;3.20;;;5.70;99.90;;;;;;5092304;28;20028;-75
2022/03/28 07:19:29;;;;;;;8.00;2.90;;;5.80;99.90;;;;;;5093033;28;20093;-75
2022/03/28 07:21:55;;;;;;;12.82;2.97;;;5.80;99.90;;;;;;5092964;28;20031;-75
2022/03/28 07:24:21;;;;;;;10.93;2.75;;;5.80;99.90;;;;;;5093025;28;20425;-75
2022/03/28 07:26:48;;;;;;;15.88;3.65;;;5.90;99.90;;;;;;5093476;28;20027;-76
2022/03/28 07:29:17;;;;;;;10.52;3.28;;;5.90;99.90;;;;;;5093664;28;20053;-76
2022/03/28 07:31:43;;;;;;;9.27;3.28;;;6.00;99.90;;;;;;5095562;28;20020;-76
2022/03/28 07:36:53;;;;;;;8.57;3.33;;;6.20;99.90;;;;;;5097207;28;20123;-75
2022/03/28 07:39:20;;;;;;;8.07;2.67;;;6.30;99.90;;;;;;5095419;28;20074;-76
2022/03/28 07:41:49;;;;;;;10.25;2.83;;;6.40;99.90;;;;;;5095248;28;20020;-75
2022/03/28 07:44:15;;;;;;;7.45;2.85;;;6.50;99.90;;;;;;5095446;28;20385;-75
2022/03/28 07:46:43;;;;;;;11.00;2.80;;;6.50;99.90;;;;;;5096467;28;20025;-75
2022/03/28 07:49:09;;;;;;;8.35;3.33;;;6.60;99.90;;;;;;5096322;28;20051;-75
2022/03/28 07:51:35;;;;;;;7.63;2.85;;;6.60;99.90;;;;;;5096268;28;20078;-75
2022/03/28 07:54:01;;;;;;;9.30;3.28;;;6.70;99.90;;;;;;5096318;28;20543;-76
2022/03/28 07:56:26;;;;;;;6.38;3.10;;;6.80;99.90;;;;;;5096650;28;20058;-76
2022/03/28 07:58:52;;;;;;;8.95;3.13;;;6.90;99.90;;;;;;5096142;28;20377;-76
2022/03/28 08:01:17;;;;;;;7.45;2.63;;;6.90;99.90;;;;;;5096257;28;20024;-74
2022/03/28 08:03:43;;;;;;;11.32;3.67;;;7.00;99.90;;;;;;5096079;28;20468;-74
2022/03/28 08:06:08;;;;;;;9.77;3.47;;;7.10;99.90;;;;;;5096032;28;20020;-75
2022/03/28 08:08:35;;;;;;;8.45;2.63;;;7.20;99.90;;;;;;5096177;28;20384;-73
2022/03/28 08:11:01;;;;;;;10.32;3.75;;;7.20;99.90;;;;;;5095918;28;20016;-76
2022/03/28 08:13:27;;;;;;;11.23;3.53;;;7.30;99.90;;;;;;5096103;28;20036;-74
2022/03/28 08:15:53;;;;;;;9.77;3.20;;;7.40;99.90;;;;;;5096639;28;20061;-76
2022/03/28 08:18:19;;;;;;;7.82;3.22;;;7.40;99.90;;;;;;5096662;28;20469;-74
2022/03/28 08:20:45;;;;;;;10.52;2.90;;;7.50;99.90;;;;;;5094608;28;20026;-73
2022/03/28 08:23:10;;;;;;;7.03;2.75;;;7.60;99.90;;;;;;5094316;28;20126;-73
2022/03/28 08:25:36;;;;;;;9.10;3.60;;;7.60;99.90;;;;;;5096414;28;20065;-76
2022/03/28 08:28:02;;;;;;;6.80;3.15;;;7.70;99.90;;;;;;5094413;28;20439;-77
2022/03/28 08:30:28;;;;;;;11.48;3.42;;;7.80;99.90;;;;;;5095866;28;20504;-76
2022/03/28 08:32:55;;;;;;;7.80;3.03;;;7.70;99.90;;;;;;5096653;28;20040;-77
2022/03/28 08:35:22;;;;;;;10.88;3.47;;;7.90;99.90;;;;;;5095910;28;20027;-74
2022/03/28 08:37:48;;;;;;;8.85;3.22;;;8.10;99.90;;;;;;5096063;28;20024;-76
2022/03/28 08:40:17;;;;;;;13.23;3.55;;;8.10;99.90;;;;;;5096218;28;20059;-77
2022/03/28 08:42:44;;;;;;;9.00;3.40;;;8.20;99.90;;;;;;5095728;28;20035;-77
2022/03/28 08:45:13;;;;;;;10.15;3.25;;;8.30;99.90;;;;;;5095863;28;20394;-77
2022/03/28 08:47:42;;;;;;;10.77;2.75;;;8.50;99.90;;;;;;5094239;28;20024;-77
2022/03/28 08:50:10;;;;;;;9.55;4.13;;;8.60;99.90;;;;;;5095702;28;20013;-77
2022/03/28 08:52:38;;;;;;;8.45;3.55;;;8.60;99.90;;;;;;5095589;28;20481;-76
2022/03/28 08:55:05;;;;;;;12.20;3.47;;;8.60;99.90;;;;;;5095365;28;20499;-77
2022/03/28 08:57:31;;;;;;;10.75;4.32;;;8.50;99.90;;;;;;5095167;28;20030;-77
2022/03/28 08:59:58;;;;;;;13.48;3.38;;;8.60;99.90;;;;;;5095424;28;20098;-77
2022/03/28 09:02:31;;;;;;;12.55;4.32;;;8.70;99.90;;;;;;5095154;28;20020;-77
2022/03/28 09:04:56;;;;;;;14.50;3.42;;;8.70;99.90;;;;;;5094283;28;20104;-77
2022/03/28 09:07:27;;;;;;;11.55;4.88;;;8.90;99.90;;;;;;5094328;28;20048;-77
2022/03/28 09:09:57;;;;;;;11.82;4.25;;;9.00;99.90;;;;;;5094421;28;20047;-77
2022/03/28 09:12:24;;;;;;;15.10;5.07;;;9.00;99.90;;;;;;5095884;28;20024;-77
2022/03/28 09:14:58;;;;;;;14.80;5.93;;;9.20;99.90;;;;;;5097107;28;20050;-77
2022/03/28 09:17:25;;;;;;;12.75;4.68;;;9.40;99.90;;;;;;5095289;28;20024;-77
2022/03/28 09:19:58;;;;;;;17.42;6.32;;;9.50;99.90;;;;;;5095397;28;20020;-77
2022/03/28 09:22:27;;;;;;;15.00;5.65;;;9.50;99.90;;;;;;5095620;28;20024;-77
2022/03/28 09:24:58;;;;;;;17.95;5.78;;;9.60;99.90;;;;;;5095651;28;20012;-76
2022/03/28 09:27:26;;;;;;;13.50;5.43;;;9.70;99.90;;;;;;5095298;28;20012;-76
2022/03/28 09:30:11;;;;;;;12.88;5.03;;;9.90;99.90;;;;;;5095959;28;20024;-77
2022/03/28 09:32:47;;;;;;;16.02;5.47;;;10.10;99.90;;;;;;5097503;28;20381;-75
2022/03/28 09:35:24;;;;;;;14.38;5.82;;;10.20;99.90;;;;;;5095360;28;20469;-77
2022/03/28 09:37:58;;;;;;;15.85;5.57;;;10.30;99.90;;;;;;5093730;28;20538;-74
2022/03/28 09:40:28;;;;;;;17.58;6.80;;;10.40;99.90;;;;;;5094472;28;20032;-73
2022/03/28 09:42:54;;;;;;;15.60;6.07;;;10.40;99.90;;;;;;5094999;28;20024;-75
2022/03/28 09:45:22;;;;;;;17.50;5.93;;;10.50;99.90;;;;;;5094825;28;20109;-77
2022/03/28 09:47:59;;;;;;;18.73;5.90;;;10.60;99.90;;;;;;5093058;28;20028;-76
2022/03/28 09:50:38;;;;;;;17.58;4.80;;;10.70;99.90;;;;;;5093658;28;20020;-77
2022/03/28 09:53:22;;;;;;;15.55;6.20;;;10.80;99.90;;;;;;5095425;28;20028;-77
2022/03/28 09:55:48;;;;;;;12.57;5.75;;;10.90;99.90;;;;;;5094056;28;20027;-77
2022/03/28 09:58:46;;;;;;;15.07;5.07;;;11.00;99.90;;;;;;5094659;28;20020;-75
2022/03/28 10:01:18;;;;;;;12.02;4.05;;;11.20;99.90;;;;;;5093885;28;20027;-75
2022/03/28 10:03:46;;;;;;;16.85;4.78;;;11.30;99.90;;;;;;5092544;28;20048;-76
2022/03/28 10:06:12;;;;;;;12.43;4.03;;;11.30;99.90;;;;;;5094017;28;20020;-76
2022/03/28 10:08:38;;;;;;;15.68;5.72;;;11.50;99.90;;;;;;5094170;28;20151;-75
2022/03/28 10:11:05;;;;;;;13.77;4.90;;;11.60;99.90;;;;;;5093665;28;20138;-75
2022/03/28 10:13:31;;;;;;;13.15;5.05;;;11.70;99.90;;;;;;5093319;28;20059;-75
2022/03/28 10:15:58;;;;;;;9.93;3.65;;;11.80;99.90;;;;;;5092233;28;20063;-75
2022/03/28 10:18:29;;;;;;;14.13;5.38;;;11.80;99.90;;;;;;5093256;28;20103;-75
2022/03/28 10:20:56;;;;;;;11.70;4.75;;;11.90;99.90;;;;;;5093224;28;20028;-76
2022/03/28 10:23:44;;;;;;;13.85;4.63;;;12.00;99.90;;;;;;5093177;28;20024;-75
2022/03/28 10:26:11;;;;;;;8.33;3.70;;;12.10;99.90;;;;;;5093522;28;20028;-74
2022/03/28 10:28:38;;;;;;;8.85;3.60;;;12.30;99.90;;;;;;5093233;28;20304;-74
2022/03/28 10:31:17;;;;;;;5.85;2.20;;;12.40;99.90;;;;;;5092373;28;20020;-74
2022/03/28 10:33:50;;;;;;;7.32;2.85;;;12.60;99.90;;;;;;5091987;28;20024;-74
2022/03/28 10:36:28;;;;;;;5.88;2.45;;;12.70;99.90;;;;;;5093209;28;20099;-74
2022/03/28 10:38:57;;;;;;;9.35;2.70;;;12.70;99.90;;;;;;5092074;28;20063;-77
2022/03/28 10:41:26;;;;;;;12.18;3.33;;;12.80;99.90;;;;;;5092030;28;20102;-75
2022/03/28 10:43:51;;;;;;;7.10;3.25;;;12.80;99.90;;;;;;5092240;28;20115;-74
2022/03/28 10:46:19;;;;;;;11.02;2.97;;;12.80;99.90;;;;;;5092452;28;20111;-75
2022/03/28 10:48:51;;;;;;;8.27;3.00;;;12.70;99.90;;;;;;5092524;28;20020;-77
2022/03/28 10:51:24;;;;;;;9.02;2.83;;;12.90;99.90;;;;;;5093395;28;20020;-77
2022/03/28 10:54:05;;;;;;;9.07;3.10;;;13.00;99.90;;;;;;5093860;28;20113;-77
2022/03/28 10:56:38;;;;;;;5.03;2.05;;;13.10;99.90;;;;;;5092091;28;20397;-77
2022/03/28 10:59:09;;;;;;;9.00;3.03;;;13.30;99.90;;;;;;5093109;28;20024;-77
2022/03/28 11:01:42;;;;;;;8.88;2.10;;;13.40;99.90;;;;;;5093113;28;20028;-77
2022/03/28 11:04:18;;;;;;;7.35;2.80;;;13.50;99.90;;;;;;5093758;28;20023;-77
2022/03/28 11:07:05;;;;;;;7.15;2.67;;;13.60;99.90;;;;;;5096015;28;20397;-77
2022/03/28 11:10:07;;;;;;;8.57;2.65;;;13.80;99.90;;;;;;5095764;28;20473;-77
2022/03/28 11:12:40;;;;;;;9.88;3.20;;;13.90;99.90;;;;;;5097081;28;20028;-77
2022/03/28 11:15:21;;;;;;;7.45;2.85;;;14.20;99.90;;;;;;5097061;28;20528;-77
2022/03/28 11:18:04;;;;;;;7.20;2.88;;;14.30;99.90;;;;;;5095758;28;20028;-77
2022/03/28 11:20:52;;;;;;;9.95;3.60;;;14.20;99.90;;;;;;5096967;28;20103;-77
2022/03/28 11:23:20;;;;;;;9.98;2.75;;;14.50;99.90;;;;;;5096828;28;20115;-77
2022/03/28 11:25:54;;;;;;;6.90;2.25;;;14.90;99.90;;;;;;5095532;28;20431;-77
2022/03/28 11:28:23;;;;;;;11.85;3.28;;;15.00;99.90;;;;;;5097400;28;20024;-77
2022/03/28 11:30:55;;;;;;;8.07;2.80;;;15.00;99.90;;;;;;5097557;28;20016;-77
2022/03/28 11:33:29;;;;;;;11.48;4.05;;;15.10;99.90;;;;;;5096818;28;20028;-77
2022/03/28 11:36:02;;;;;;;11.18;3.22;;;15.20;99.90;;;;;;5096840;28;20062;-77
2022/03/28 11:38:41;;;;;;;12.45;3.58;;;15.30;99.90;;;;;;5096320;28;20024;-77
2022/03/28 11:41:09;;;;;;;12.60;4.25;;;15.50;99.90;;;;;;5096506;28;20119;-77
2022/03/28 11:43:43;;;;;;;12.13;3.72;;;15.80;99.90;;;;;;5096086;28;20024;-77
2022/03/28 11:46:23;;;;;;;8.02;3.00;;;15.90;98.30;;;;;;5096670;28;20377;-77
2022/03/28 11:49:04;;;;;;;12.77;2.97;;;16.20;98.20;;;;;;5095973;28;20044;-77
2022/03/28 11:51:38;;;;;;;7.90;2.92;;;16.40;98.00;;;;;;5096027;28;20027;-77
2022/03/28 11:54:07;;;;;;;10.93;2.72;;;16.60;97.20;;;;;;5095975;28;20016;-77
2022/03/28 11:58:14;;;;;;;7.38;2.88;;;16.50;96.70;;;;;;5096118;28;20027;-77
2022/03/28 11:59:24;;;;;;;9.60;2.55;;;16.50;98.10;;;;;;5095820;28;20389;-77
2022/03/28 12:02:01;;;;;;;12.02;2.63;;;16.70;95.30;;;;;;5096110;28;20021;-74
2022/03/28 12:04:27;;;;;;;12.68;2.92;;;16.60;98.10;;;;;;5095828;28;20430;-75
2022/03/28 12:06:53;;;;;;;12.75;2.80;;;16.70;95.30;;;;;;5094500;28;20438;-76
2022/03/28 12:09:20;;;;;;;11.13;3.45;;;16.80;97.10;;;;;;5095924;28;20050;-76
2022/03/28 12:11:52;;;;;;;24.80;3.42;;;17.00;96.60;;;;;;5095910;28;20020;-76
2022/03/28 12:14:18;;;;;;;9.45;2.90;;;17.00;93.80;;;;;;5094280;28;20020;-76
2022/03/28 12:16:55;;;;;;;9.15;2.38;;;16.90;93.30;;;;;;5095148;28;20024;-76
2022/03/28 12:19:26;;;;;;;8.15;3.03;;;17.00;93.30;;;;;;5095293;28;20028;-77
2022/03/28 12:21:53;;;;;;;8.35;2.95;;;17.20;92.30;;;;;;5095549;28;20028;-76
2022/03/28 12:24:20;;;;;;;13.05;2.55;;;17.30;91.90;;;;;;5095219;28;20089;-76
2022/03/28 12:26:48;;;;;;;11.63;2.53;;;17.40;92.50;;;;;;5095361;28;20019;-76
2022/03/28 12:29:15;;;;;;;12.77;2.75;;;17.50;91.60;;;;;;5095573;28;20016;-76
2022/03/28 12:31:46;;;;;;;12.23;2.17;;;17.60;85.50;;;;;;5093953;28;20515;-76
2022/03/28 12:34:13;;;;;;;7.47;1.92;;;17.80;91.00;;;;;;5095168;28;20044;-76
2022/03/28 12:36:39;;;;;;;14.15;3.53;;;18.00;89.70;;;;;;5095116;28;20020;-76
2022/03/28 12:39:08;;;;;;;9.07;2.10;;;18.00;85.60;;;;;;5093511;28;20028;-75
2022/03/28 12:41:41;;;;;;;8.38;3.17;;;18.10;82.20;;;;;;5093565;28;20476;-76
2022/03/28 12:44:15;;;;;;;5.60;1.95;;;18.10;86.00;;;;;;5095054;28;20067;-76
2022/03/28 12:46:41;;;;;;;9.40;2.05;;;18.40;86.50;;;;;;5093719;28;20024;-77
2022/03/28 12:49:13;;;;;;;13.43;2.00;;;18.40;81.30;;;;;;5094864;28;20397;-75
2022/03/28 12:51:43;;;;;;;10.80;2.25;;;18.30;82.90;;;;;;5093587;28;20103;-74
2022/03/28 12:54:16;;;;;;;8.05;2.63;;;18.30;77.70;;;;;;5093487;28;20024;-74